sensor_id;sensor_type;location;lat;lon;timestamp;pressure;altitude;pressure_sealevel;temperature;humidity
62124;BME280;48110;47.532;19.078;2022-08-30T00:03:14;100552.34;;;19.93;100.00
62124;BME280;48110;47.532;19.078;2022-08-30T00:06:18;100552.50;;;19.99;100.00
62124;BME280;48110;47.532;19.078;2022-08-30T00:09:21;100555.50;;;20.09;100.00
62124;BME280;48110;47.532;19.078;2022-08-30T00:12:23;100557.03;;;20.16;100.00
62124;BME280;48110;47.532;19.078;2022-08-30T00:15:27;100557.53;;;20.25;100.00
62124;BME280;48110;47.532;19.078;2022-08-30T00:18:30;100559.37;;;20.31;100.00
62124;BME280;48110;47.532;19.078;2022-08-30T00:21:33;100562.44;;;20.34;100.00
62124;BME280;48110;47.532;19.078;2022-08-30T00:24:36;100552.03;;;20.38;100.00
62124;BME280;48110;47.532;19.078;2022-08-30T00:27:40;100559.06;;;20.39;100.00
62124;BME280;48110;47.532;19.078;2022-08-30T00:30:43;100547.09;;;20.35;100.00
62124;BME280;48110;47.532;19.078;2022-08-30T00:33:47;100553.59;;;20.27;100.00
62124;BME280;48110;47.532;19.078;2022-08-30T00:36:49;100548.75;;;20.18;100.00
62124;BME280;48110;47.532;19.078;2022-08-30T00:39:52;100551.72;;;20.10;100.00
62124;BME280;48110;47.532;19.078;2022-08-30T00:42:57;100560.25;;;20.07;100.00
62124;BME280;48110;47.532;19.078;2022-08-30T00:46:01;100559.66;;;20.05;100.00
62124;BME280;48110;47.532;19.078;2022-08-30T00:49:11;100555.78;;;20.01;100.00
62124;BME280;48110;47.532;19.078;2022-08-30T00:52:15;100552.78;;;19.90;100.00
62124;BME280;48110;47.532;19.078;2022-08-30T00:55:19;100555.16;;;19.80;100.00
62124;BME280;48110;47.532;19.078;2022-08-30T00:58:28;100554.78;;;19.77;100.00
62124;BME280;48110;47.532;19.078;2022-08-30T01:01:32;100551.38;;;19.70;100.00
62124;BME280;48110;47.532;19.078;2022-08-30T01:04:36;100551.22;;;19.65;100.00
62124;BME280;48110;47.532;19.078;2022-08-30T01:07:41;100562.41;;;19.62;100.00
62124;BME280;48110;47.532;19.078;2022-08-30T01:10:45;100561.22;;;19.58;100.00
62124;BME280;48110;47.532;19.078;2022-08-30T01:13:48;100556.03;;;19.56;100.00
62124;BME280;48110;47.532;19.078;2022-08-30T01:16:55;100556.69;;;19.51;100.00
62124;BME280;48110;47.532;19.078;2022-08-30T01:20:04;100561.50;;;19.49;100.00
62124;BME280;48110;47.532;19.078;2022-08-30T01:23:11;100552.44;;;19.44;100.00
62124;BME280;48110;47.532;19.078;2022-08-30T01:26:15;100552.03;;;19.40;100.00
62124;BME280;48110;47.532;19.078;2022-08-30T01:29:23;100549.94;;;19.42;100.00
62124;BME280;48110;47.532;19.078;2022-08-30T01:32:27;100553.91;;;19.40;100.00
62124;BME280;48110;47.532;19.078;2022-08-30T01:35:36;100551.41;;;19.38;100.00
62124;BME280;48110;47.532;19.078;2022-08-30T01:38:52;100545.87;;;19.33;100.00
62124;BME280;48110;47.532;19.078;2022-08-30T01:41:56;100543.62;;;19.30;100.00
62124;BME280;48110;47.532;19.078;2022-08-30T01:44:59;100540.34;;;19.28;100.00
62124;BME280;48110;47.532;19.078;2022-08-30T01:48:02;100546.59;;;19.22;100.00
62124;BME280;48110;47.532;19.078;2022-08-30T01:51:12;100546.00;;;19.20;100.00
62124;BME280;48110;47.532;19.078;2022-08-30T01:54:15;100540.84;;;19.19;100.00
62124;BME280;48110;47.532;19.078;2022-08-30T01:57:21;100545.00;;;19.15;100.00
62124;BME280;48110;47.532;19.078;2022-08-30T02:00:24;100536.13;;;19.14;100.00
62124;BME280;48110;47.532;19.078;2022-08-30T02:03:27;100543.81;;;19.10;100.00
62124;BME280;48110;47.532;19.078;2022-08-30T02:06:37;100543.44;;;19.07;100.00
62124;BME280;48110;47.532;19.078;2022-08-30T02:09:40;100540.94;;;19.05;100.00
62124;BME280;48110;47.532;19.078;2022-08-30T02:12:47;100539.31;;;19.04;100.00
62124;BME280;48110;47.532;19.078;2022-08-30T02:15:50;100532.72;;;19.00;100.00
62124;BME280;48110;47.532;19.078;2022-08-30T02:18:54;100545.53;;;18.98;100.00
62124;BME280;48110;47.532;19.078;2022-08-30T02:21:58;100536.06;;;18.96;100.00
62124;BME280;48110;47.532;19.078;2022-08-30T02:25:03;100537.47;;;18.98;100.00
62124;BME280;48110;47.532;19.078;2022-08-30T02:28:07;100530.19;;;19.05;100.00
62124;BME280;48110;47.532;19.078;2022-08-30T02:31:10;100525.69;;;18.99;100.00
62124;BME280;48110;47.532;19.078;2022-08-30T02:34:13;100530.66;;;19.02;100.00
62124;BME280;48110;47.532;19.078;2022-08-30T02:37:17;100537.47;;;18.98;100.00
62124;BME280;48110;47.532;19.078;2022-08-30T02:40:19;100539.78;;;18.95;100.00
62124;BME280;48110;47.532;19.078;2022-08-30T02:43:24;100536.09;;;18.89;100.00
62124;BME280;48110;47.532;19.078;2022-08-30T02:46:27;100540.47;;;18.84;100.00
62124;BME280;48110;47.532;19.078;2022-08-30T02:49:36;100539.25;;;18.86;100.00
62124;BME280;48110;47.532;19.078;2022-08-30T02:52:39;100531.44;;;18.78;100.00
62124;BME280;48110;47.532;19.078;2022-08-30T02:55:43;100533.97;;;18.73;100.00
62124;BME280;48110;47.532;19.078;2022-08-30T02:58:46;100542.75;;;18.87;100.00
62124;BME280;48110;47.532;19.078;2022-08-30T03:01:49;100533.72;;;18.75;100.00
62124;BME280;48110;47.532;19.078;2022-08-30T03:04:52;100525.66;;;18.75;100.00
62124;BME280;48110;47.532;19.078;2022-08-30T03:07:55;100532.06;;;18.74;100.00
62124;BME280;48110;47.532;19.078;2022-08-30T03:10:58;100531.50;;;18.65;100.00
62124;BME280;48110;47.532;19.078;2022-08-30T03:14:01;100538.53;;;18.66;100.00
62124;BME280;48110;47.532;19.078;2022-08-30T03:17:05;100532.97;;;18.67;100.00
62124;BME280;48110;47.532;19.078;2022-08-30T03:20:15;100535.69;;;18.61;100.00
62124;BME280;48110;47.532;19.078;2022-08-30T03:23:18;100538.41;;;18.54;100.00
62124;BME280;48110;47.532;19.078;2022-08-30T03:26:23;100537.97;;;18.57;100.00
62124;BME280;48110;47.532;19.078;2022-08-30T03:29:26;100556.19;;;18.49;100.00
62124;BME280;48110;47.532;19.078;2022-08-30T03:32:31;100555.94;;;18.63;100.00
62124;BME280;48110;47.532;19.078;2022-08-30T03:35:33;100554.09;;;18.51;100.00
62124;BME280;48110;47.532;19.078;2022-08-30T03:38:36;100557.62;;;18.45;100.00
62124;BME280;48110;47.532;19.078;2022-08-30T03:41:39;100558.91;;;18.42;100.00
62124;BME280;48110;47.532;19.078;2022-08-30T03:44:42;100556.25;;;18.36;100.00
62124;BME280;48110;47.532;19.078;2022-08-30T03:47:45;100557.06;;;18.36;100.00
62124;BME280;48110;47.532;19.078;2022-08-30T03:50:48;100562.69;;;18.28;100.00
62124;BME280;48110;47.532;19.078;2022-08-30T03:53:50;100564.16;;;18.24;100.00
62124;BME280;48110;47.532;19.078;2022-08-30T03:56:54;100565.63;;;18.20;100.00
62124;BME280;48110;47.532;19.078;2022-08-30T03:59:57;100571.19;;;18.18;100.00
62124;BME280;48110;47.532;19.078;2022-08-30T04:03:00;100567.69;;;18.18;100.00
62124;BME280;48110;47.532;19.078;2022-08-30T04:06:03;100573.03;;;18.24;100.00
62124;BME280;48110;47.532;19.078;2022-08-30T04:09:06;100574.91;;;18.17;100.00
62124;BME280;48110;47.532;19.078;2022-08-30T04:12:09;100579.47;;;18.17;100.00
62124;BME280;48110;47.532;19.078;2022-08-30T04:15:12;100577.59;;;18.17;100.00
62124;BME280;48110;47.532;19.078;2022-08-30T04:18:16;100578.03;;;18.14;100.00
62124;BME280;48110;47.532;19.078;2022-08-30T04:21:18;100581.75;;;18.20;100.00
62124;BME280;48110;47.532;19.078;2022-08-30T04:24:21;100597.66;;;18.15;100.00
62124;BME280;48110;47.532;19.078;2022-08-30T04:27:24;100603.81;;;18.15;100.00
62124;BME280;48110;47.532;19.078;2022-08-30T04:30:27;100604.88;;;18.14;100.00
62124;BME280;48110;47.532;19.078;2022-08-30T04:33:29;100612.72;;;18.16;100.00
62124;BME280;48110;47.532;19.078;2022-08-30T04:36:36;100613.72;;;18.21;100.00
62124;BME280;48110;47.532;19.078;2022-08-30T04:39:39;100623.19;;;18.31;100.00
62124;BME280;48110;47.532;19.078;2022-08-30T04:42:44;100624.78;;;18.45;100.00
62124;BME280;48110;47.532;19.078;2022-08-30T04:45:46;100631.59;;;18.60;100.00
62124;BME280;48110;47.532;19.078;2022-08-30T04:48:49;100632.53;;;18.79;100.00
62124;BME280;48110;47.532;19.078;2022-08-30T04:51:52;100637.19;;;18.97;100.00
62124;BME280;48110;47.532;19.078;2022-08-30T04:54:56;100637.66;;;19.19;100.00
62124;BME280;48110;47.532;19.078;2022-08-30T04:57:59;100642.06;;;19.38;100.00
62124;BME280;48110;47.532;19.078;2022-08-30T05:01:02;100643.25;;;19.48;100.00
62124;BME280;48110;47.532;19.078;2022-08-30T05:04:06;100647.97;;;19.53;100.00
62124;BME280;48110;47.532;19.078;2022-08-30T05:07:08;100649.81;;;19.59;100.00
62124;BME280;48110;47.532;19.078;2022-08-30T05:10:11;100653.09;;;19.61;100.00
62124;BME280;48110;47.532;19.078;2022-08-30T05:13:15;100653.25;;;19.66;100.00
62124;BME280;48110;47.532;19.078;2022-08-30T05:16:19;100654.56;;;19.82;100.00
62124;BME280;48110;47.532;19.078;2022-08-30T05:19:22;100655.19;;;19.84;100.00
62124;BME280;48110;47.532;19.078;2022-08-30T05:22:26;100654.91;;;20.10;100.00
62124;BME280;48110;47.532;19.078;2022-08-30T05:25:32;100657.84;;;20.09;100.00
62124;BME280;48110;47.532;19.078;2022-08-30T05:28:35;100654.59;;;20.00;100.00
62124;BME280;48110;47.532;19.078;2022-08-30T05:31:38;100656.88;;;19.78;100.00
62124;BME280;48110;47.532;19.078;2022-08-30T05:34:41;100651.84;;;20.07;100.00
62124;BME280;48110;47.532;19.078;2022-08-30T05:37:44;100654.84;;;20.17;100.00
62124;BME280;48110;47.532;19.078;2022-08-30T05:40:47;100661.53;;;20.32;100.00
62124;BME280;48110;47.532;19.078;2022-08-30T05:43:52;100658.84;;;20.51;100.00
62124;BME280;48110;47.532;19.078;2022-08-30T05:46:55;100665.72;;;20.65;100.00
62124;BME280;48110;47.532;19.078;2022-08-30T05:49:58;100663.22;;;20.81;100.00
62124;BME280;48110;47.532;19.078;2022-08-30T05:53:00;100656.84;;;21.06;100.00
62124;BME280;48110;47.532;19.078;2022-08-30T05:56:06;100668.28;;;20.90;100.00
62124;BME280;48110;47.532;19.078;2022-08-30T05:59:09;100677.66;;;20.87;100.00
62124;BME280;48110;47.532;19.078;2022-08-30T06:02:11;100680.44;;;20.62;100.00
62124;BME280;48110;47.532;19.078;2022-08-30T06:05:14;100682.91;;;20.82;100.00
62124;BME280;48110;47.532;19.078;2022-08-30T06:08:17;100672.91;;;20.71;100.00
62124;BME280;48110;47.532;19.078;2022-08-30T06:11:22;100673.06;;;20.88;100.00
62124;BME280;48110;47.532;19.078;2022-08-30T06:14:27;100681.81;;;21.01;100.00
62124;BME280;48110;47.532;19.078;2022-08-30T06:17:30;100672.28;;;21.17;100.00
62124;BME280;48110;47.532;19.078;2022-08-30T06:20:38;100671.97;;;21.25;100.00
62124;BME280;48110;47.532;19.078;2022-08-30T06:23:41;100680.50;;;21.22;100.00
62124;BME280;48110;47.532;19.078;2022-08-30T06:26:45;100678.13;;;21.44;100.00
62124;BME280;48110;47.532;19.078;2022-08-30T06:29:52;100673.81;;;21.78;100.00
62124;BME280;48110;47.532;19.078;2022-08-30T06:32:54;100682.16;;;22.23;100.00
62124;BME280;48110;47.532;19.078;2022-08-30T06:36:18;100682.72;;;22.48;98.25
62124;BME280;48110;47.532;19.078;2022-08-30T06:39:22;100673.50;;;21.97;99.48
62124;BME280;48110;47.532;19.078;2022-08-30T06:42:26;100676.78;;;22.11;100.00
62124;BME280;48110;47.532;19.078;2022-08-30T06:45:34;100675.47;;;22.14;97.33
62124;BME280;48110;47.532;19.078;2022-08-30T06:48:37;100663.13;;;22.29;98.96
62124;BME280;48110;47.532;19.078;2022-08-30T06:51:39;100676.59;;;22.52;96.62
62124;BME280;48110;47.532;19.078;2022-08-30T06:54:43;100679.84;;;22.78;92.13
62124;BME280;48110;47.532;19.078;2022-08-30T06:57:46;100678.19;;;22.88;90.99
62124;BME280;48110;47.532;19.078;2022-08-30T07:00:48;100681.00;;;22.82;88.10
62124;BME280;48110;47.532;19.078;2022-08-30T07:03:52;100681.53;;;22.95;88.44
62124;BME280;48110;47.532;19.078;2022-08-30T07:06:55;100683.41;;;22.95;90.16
62124;BME280;48110;47.532;19.078;2022-08-30T07:09:57;100690.03;;;22.99;86.60
62124;BME280;48110;47.532;19.078;2022-08-30T07:13:00;100689.00;;;22.88;85.38
62124;BME280;48110;47.532;19.078;2022-08-30T07:16:10;100698.91;;;23.11;85.14
62124;BME280;48110;47.532;19.078;2022-08-30T07:19:14;100694.53;;;23.10;85.79
62124;BME280;48110;47.532;19.078;2022-08-30T07:22:22;100699.62;;;23.07;85.31
62124;BME280;48110;47.532;19.078;2022-08-30T07:25:25;100702.09;;;23.53;83.37
62124;BME280;48110;47.532;19.078;2022-08-30T07:28:28;100689.81;;;23.79;79.56
62124;BME280;48110;47.532;19.078;2022-08-30T07:31:31;100703.47;;;24.61;74.23
62124;BME280;48110;47.532;19.078;2022-08-30T07:34:35;100708.19;;;24.87;74.92
62124;BME280;48110;47.532;19.078;2022-08-30T07:37:38;100705.84;;;24.96;71.21
62124;BME280;48110;47.532;19.078;2022-08-30T07:40:41;100709.41;;;26.19;68.60
62124;BME280;48110;47.532;19.078;2022-08-30T07:43:44;100710.59;;;26.90;63.08
62124;BME280;48110;47.532;19.078;2022-08-30T07:46:47;100713.75;;;27.75;60.10
62124;BME280;48110;47.532;19.078;2022-08-30T07:49:50;100717.72;;;27.01;64.37
62124;BME280;48110;47.532;19.078;2022-08-30T07:52:52;100710.59;;;26.33;58.59
62124;BME280;48110;47.532;19.078;2022-08-30T07:55:55;100714.56;;;27.50;54.35
62124;BME280;48110;47.532;19.078;2022-08-30T07:58:58;100716.19;;;28.17;52.74
62124;BME280;48110;47.532;19.078;2022-08-30T08:02:01;100722.22;;;28.98;51.02
62124;BME280;48110;47.532;19.078;2022-08-30T08:05:04;100714.81;;;29.82;49.35
62124;BME280;48110;47.532;19.078;2022-08-30T08:08:09;100720.03;;;30.36;45.85
62124;BME280;48110;47.532;19.078;2022-08-30T08:11:16;100716.56;;;30.78;43.60
62124;BME280;48110;47.532;19.078;2022-08-30T08:14:19;100706.59;;;31.62;42.59
62124;BME280;48110;47.532;19.078;2022-08-30T08:17:23;100706.47;;;31.16;43.34
62124;BME280;48110;47.532;19.078;2022-08-30T08:20:26;100709.34;;;31.24;43.04
62124;BME280;48110;47.532;19.078;2022-08-30T08:23:29;100709.97;;;31.72;41.10
62124;BME280;48110;47.532;19.078;2022-08-30T08:26:36;100703.97;;;32.03;41.33
62124;BME280;48110;47.532;19.078;2022-08-30T08:29:42;100713.09;;;31.84;42.25
62124;BME280;48110;47.532;19.078;2022-08-30T08:32:46;100708.47;;;31.29;42.55
62124;BME280;48110;47.532;19.078;2022-08-30T08:35:50;100705.88;;;30.05;45.88
62124;BME280;48110;47.532;19.078;2022-08-30T08:38:52;100706.31;;;29.83;47.03
62124;BME280;48110;47.532;19.078;2022-08-30T08:45:20;100707.56;;;29.67;45.14
62124;BME280;48110;47.532;19.078;2022-08-30T08:48:33;100699.88;;;28.86;47.67
62124;BME280;48110;47.532;19.078;2022-08-30T08:51:56;100705.88;;;29.71;44.77
62124;BME280;48110;47.532;19.078;2022-08-30T08:55:19;100697.63;;;30.10;46.01
62124;BME280;48110;47.532;19.078;2022-08-30T08:58:28;100696.53;;;31.38;42.13
62124;BME280;48110;47.532;19.078;2022-08-30T09:01:31;100698.37;;;31.43;42.54
62124;BME280;48110;47.532;19.078;2022-08-30T09:04:36;100699.75;;;31.78;42.02
62124;BME280;48110;47.532;19.078;2022-08-30T09:07:46;100696.38;;;31.48;41.12
62124;BME280;48110;47.532;19.078;2022-08-30T09:11:11;100688.72;;;30.47;42.16
62124;BME280;48110;47.532;19.078;2022-08-30T09:14:38;100687.22;;;32.59;36.70
62124;BME280;48110;47.532;19.078;2022-08-30T09:17:52;100698.16;;;33.13;35.51
62124;BME280;48110;47.532;19.078;2022-08-30T09:20:56;100680.81;;;31.63;39.53
62124;BME280;48110;47.532;19.078;2022-08-30T09:24:06;100677.97;;;31.17;42.08
62124;BME280;48110;47.532;19.078;2022-08-30T09:27:25;100677.75;;;30.89;41.51
62124;BME280;48110;47.532;19.078;2022-08-30T09:30:28;100673.66;;;31.29;41.44
62124;BME280;48110;47.532;19.078;2022-08-30T09:33:31;100672.47;;;30.55;40.72
62124;BME280;48110;47.532;19.078;2022-08-30T09:36:41;100662.88;;;30.10;45.88
62124;BME280;48110;47.532;19.078;2022-08-30T09:39:45;100664.66;;;29.96;42.93
62124;BME280;48110;47.532;19.078;2022-08-30T09:46:23;100661.97;;;29.91;45.71
62124;BME280;48110;47.532;19.078;2022-08-30T09:49:39;100656.44;;;29.67;44.76
62124;BME280;48110;47.532;19.078;2022-08-30T10:06:17;100637.75;;;30.27;44.07
62124;BME280;48110;47.532;19.078;2022-08-30T10:09:49;100632.22;;;29.79;43.42
62124;BME280;48110;47.532;19.078;2022-08-30T10:13:10;100632.28;;;29.07;43.38
62124;BME280;48110;47.532;19.078;2022-08-30T10:16:42;100636.19;;;29.34;45.03
62124;BME280;48110;47.532;19.078;2022-08-30T10:23:39;100628.62;;;29.84;43.65
62124;BME280;48110;47.532;19.078;2022-08-30T10:26:56;100630.03;;;30.10;41.32
62124;BME280;48110;47.532;19.078;2022-08-30T10:30:32;100626.09;;;30.16;42.78
62124;BME280;48110;47.532;19.078;2022-08-30T10:33:41;100626.09;;;30.16;42.78
62124;BME280;48110;47.532;19.078;2022-08-30T10:37:10;100619.28;;;30.38;44.48
62124;BME280;48110;47.532;19.078;2022-08-30T10:40:36;100617.06;;;30.63;42.48
62124;BME280;48110;47.532;19.078;2022-08-30T10:50:19;100605.47;;;34.29;35.00
62124;BME280;48110;47.532;19.078;2022-08-30T10:53:42;100604.72;;;34.37;33.62
62124;BME280;48110;47.532;19.078;2022-08-30T10:56:50;100602.87;;;34.24;33.32
62124;BME280;48110;47.532;19.078;2022-08-30T11:00:00;100611.25;;;37.20;28.71
62124;BME280;48110;47.532;19.078;2022-08-30T11:03:31;100603.44;;;37.34;28.80
62124;BME280;48110;47.532;19.078;2022-08-30T11:07:03;100596.75;;;37.56;27.51
62124;BME280;48110;47.532;19.078;2022-08-30T11:13:29;100587.38;;;40.51;23.65
62124;BME280;48110;47.532;19.078;2022-08-30T11:16:36;100590.22;;;39.73;23.65
62124;BME280;48110;47.532;19.078;2022-08-30T11:19:40;100589.87;;;41.79;22.43
62124;BME280;48110;47.532;19.078;2022-08-30T11:29:46;100568.56;;;41.63;21.23
62124;BME280;48110;47.532;19.078;2022-08-30T11:39:52;100553.28;;;38.97;24.22
62124;BME280;48110;47.532;19.078;2022-08-30T11:42:55;100546.53;;;40.55;23.10
62124;BME280;48110;47.532;19.078;2022-08-30T11:50:05;100542.00;;;42.78;20.17
62124;BME280;48110;47.532;19.078;2022-08-30T12:00:27;100525.44;;;40.54;22.05
62124;BME280;48110;47.532;19.078;2022-08-30T12:03:33;100509.44;;;43.33;20.24
62124;BME280;48110;47.532;19.078;2022-08-30T12:12:47;100512.09;;;44.18;18.64
62124;BME280;48110;47.532;19.078;2022-08-30T12:16:18;100516.06;;;45.11;17.91
62124;BME280;48110;47.532;19.078;2022-08-30T12:19:23;100509.59;;;44.85;16.98
62124;BME280;48110;47.532;19.078;2022-08-30T12:22:27;100499.97;;;44.76;17.25
62124;BME280;48110;47.532;19.078;2022-08-30T12:25:32;100497.47;;;44.49;17.82
62124;BME280;48110;47.532;19.078;2022-08-30T12:28:36;100486.38;;;43.44;19.39
62124;BME280;48110;47.532;19.078;2022-08-30T12:35:18;100474.06;;;41.78;21.80
62124;BME280;48110;47.532;19.078;2022-08-30T12:38:21;100477.22;;;45.87;17.13
62124;BME280;48110;47.532;19.078;2022-08-30T12:41:29;100462.34;;;42.88;19.84
62124;BME280;48110;47.532;19.078;2022-08-30T12:44:31;100454.59;;;39.12;23.55
62124;BME280;48110;47.532;19.078;2022-08-30T12:54:02;100439.66;;;35.80;29.66
62124;BME280;48110;47.532;19.078;2022-08-30T12:57:06;100437.59;;;36.39;29.19
62124;BME280;48110;47.532;19.078;2022-08-30T13:00:33;100431.38;;;35.04;28.71
62124;BME280;48110;47.532;19.078;2022-08-30T13:03:37;100439.31;;;38.75;24.81
62124;BME280;48110;47.532;19.078;2022-08-30T13:06:52;100437.94;;;39.12;24.96
62124;BME280;48110;47.532;19.078;2022-08-30T13:10:05;100433.19;;;41.36;23.11
62124;BME280;48110;47.532;19.078;2022-08-30T13:14:18;100436.19;;;39.70;23.28
62124;BME280;48110;47.532;19.078;2022-08-30T13:20:24;100422.75;;;34.42;30.40
62124;BME280;48110;47.532;19.078;2022-08-30T13:23:27;100416.41;;;32.80;34.53
62124;BME280;48110;47.532;19.078;2022-08-30T13:26:35;100413.63;;;31.64;35.81
62124;BME280;48110;47.532;19.078;2022-08-30T13:29:42;100412.34;;;30.88;37.32
62124;BME280;48110;47.532;19.078;2022-08-30T13:32:50;100406.44;;;30.30;41.08
62124;BME280;48110;47.532;19.078;2022-08-30T13:35:53;100401.75;;;29.26;41.39
62124;BME280;48110;47.532;19.078;2022-08-30T13:38:58;100403.88;;;32.07;38.33
62124;BME280;48110;47.532;19.078;2022-08-30T13:42:00;100407.16;;;36.06;29.51
62124;BME280;48110;47.532;19.078;2022-08-30T13:45:23;100393.03;;;33.70;32.21
62124;BME280;48110;47.532;19.078;2022-08-30T13:48:48;100398.38;;;32.21;35.90
62124;BME280;48110;47.532;19.078;2022-08-30T13:51:55;100396.16;;;30.03;40.89
62124;BME280;48110;47.532;19.078;2022-08-30T13:55:18;100393.63;;;28.64;45.07
62124;BME280;48110;47.532;19.078;2022-08-30T13:58:21;100387.19;;;29.78;43.26
62124;BME280;48110;47.532;19.078;2022-08-30T14:01:25;100383.59;;;29.41;43.68
62124;BME280;48110;47.532;19.078;2022-08-30T14:04:31;100384.44;;;29.12;45.85
62124;BME280;48110;47.532;19.078;2022-08-30T14:07:38;100381.97;;;30.19;44.94
62124;BME280;48110;47.532;19.078;2022-08-30T14:10:42;100376.91;;;33.38;35.76
62124;BME280;48110;47.532;19.078;2022-08-30T14:13:50;100376.84;;;33.86;34.91
62124;BME280;48110;47.532;19.078;2022-08-30T14:17:13;100374.97;;;32.68;36.23
62124;BME280;48110;47.532;19.078;2022-08-30T14:20:17;100378.69;;;31.69;38.13
62124;BME280;48110;47.532;19.078;2022-08-30T14:23:20;100364.31;;;30.44;41.66
62124;BME280;48110;47.532;19.078;2022-08-30T14:26:28;100363.28;;;29.89;42.82
62124;BME280;48110;47.532;19.078;2022-08-30T14:29:35;100359.09;;;30.48;42.14
62124;BME280;48110;47.532;19.078;2022-08-30T14:32:40;100351.53;;;29.89;43.13
62124;BME280;48110;47.532;19.078;2022-08-30T14:35:45;100356.09;;;29.08;45.32
62124;BME280;48110;47.532;19.078;2022-08-30T14:38:48;100358.78;;;28.56;46.72
62124;BME280;48110;47.532;19.078;2022-08-30T14:41:53;100353.88;;;28.52;47.67
62124;BME280;48110;47.532;19.078;2022-08-30T14:44:56;100350.34;;;27.74;48.28
62124;BME280;48110;47.532;19.078;2022-08-30T14:48:00;100344.94;;;27.69;49.22
62124;BME280;48110;47.532;19.078;2022-08-30T14:51:16;100350.72;;;27.57;49.92
62124;BME280;48110;47.532;19.078;2022-08-30T14:54:23;100348.28;;;27.46;49.52
62124;BME280;48110;47.532;19.078;2022-08-30T14:57:27;100354.25;;;27.63;52.48
62124;BME280;48110;47.532;19.078;2022-08-30T15:00:31;100351.47;;;27.73;51.06
62124;BME280;48110;47.532;19.078;2022-08-30T15:03:38;100338.75;;;27.48;49.74
62124;BME280;48110;47.532;19.078;2022-08-30T15:06:45;100345.59;;;27.36;50.61
62124;BME280;48110;47.532;19.078;2022-08-30T15:09:48;100345.87;;;27.44;51.62
62124;BME280;48110;47.532;19.078;2022-08-30T15:12:52;100344.53;;;27.37;51.27
62124;BME280;48110;47.532;19.078;2022-08-30T15:15:56;100344.31;;;27.23;51.40
62124;BME280;48110;47.532;19.078;2022-08-30T15:19:04;100339.31;;;27.40;53.34
62124;BME280;48110;47.532;19.078;2022-08-30T15:22:07;100339.81;;;27.57;52.20
62124;BME280;48110;47.532;19.078;2022-08-30T15:25:12;100334.28;;;27.73;52.78
62124;BME280;48110;47.532;19.078;2022-08-30T15:28:15;100331.31;;;27.69;51.36
62124;BME280;48110;47.532;19.078;2022-08-30T15:31:22;100328.78;;;27.23;51.19
62124;BME280;48110;47.532;19.078;2022-08-30T15:34:25;100324.66;;;27.31;50.36
62124;BME280;48110;47.532;19.078;2022-08-30T15:37:30;100333.97;;;27.25;53.00
62124;BME280;48110;47.532;19.078;2022-08-30T15:40:33;100326.66;;;27.15;52.83
62124;BME280;48110;47.532;19.078;2022-08-30T15:43:38;100329.41;;;27.05;51.58
62124;BME280;48110;47.532;19.078;2022-08-30T15:46:44;100325.63;;;27.01;52.17
62124;BME280;48110;47.532;19.078;2022-08-30T15:49:56;100326.56;;;27.31;54.47
62124;BME280;48110;47.532;19.078;2022-08-30T15:52:59;100331.97;;;27.36;49.82
62124;BME280;48110;47.532;19.078;2022-08-30T15:56:03;100326.50;;;27.41;52.54
62124;BME280;48110;47.532;19.078;2022-08-30T15:59:06;100330.91;;;27.32;52.39
62124;BME280;48110;47.532;19.078;2022-08-30T16:02:10;100329.00;;;27.32;54.64
62124;BME280;48110;47.532;19.078;2022-08-30T16:05:15;100334.31;;;27.03;51.42
62124;BME280;48110;47.532;19.078;2022-08-30T16:08:19;100330.25;;;26.91;52.12
62124;BME280;48110;47.532;19.078;2022-08-30T16:11:22;100331.34;;;26.90;53.22
62124;BME280;48110;47.532;19.078;2022-08-30T16:14:26;100331.06;;;26.81;52.60
62124;BME280;48110;47.532;19.078;2022-08-30T16:17:29;100327.53;;;26.80;52.59
62124;BME280;48110;47.532;19.078;2022-08-30T16:20:32;100310.12;;;26.71;53.01
62124;BME280;48110;47.532;19.078;2022-08-30T16:23:37;100317.50;;;26.66;51.74
62124;BME280;48110;47.532;19.078;2022-08-30T16:26:41;100316.94;;;26.64;52.97
62124;BME280;48110;47.532;19.078;2022-08-30T16:29:44;100316.41;;;26.62;52.32
62124;BME280;48110;47.532;19.078;2022-08-30T16:32:48;100313.16;;;26.60;53.06
62124;BME280;48110;47.532;19.078;2022-08-30T16:35:52;100316.13;;;26.58;53.11
62124;BME280;48110;47.532;19.078;2022-08-30T16:38:56;100305.25;;;26.53;53.65
62124;BME280;48110;47.532;19.078;2022-08-30T16:42:00;100311.50;;;26.59;53.81
62124;BME280;48110;47.532;19.078;2022-08-30T16:45:07;100310.44;;;26.50;52.29
62124;BME280;48110;47.532;19.078;2022-08-30T16:48:13;100314.53;;;26.37;51.40
62124;BME280;48110;47.532;19.078;2022-08-30T16:51:20;100318.09;;;26.32;51.35
62124;BME280;48110;47.532;19.078;2022-08-30T16:54:23;100323.53;;;26.27;51.17
62124;BME280;48110;47.532;19.078;2022-08-30T16:57:26;100315.88;;;26.24;50.83
62124;BME280;48110;47.532;19.078;2022-08-30T17:00:30;100318.09;;;26.22;52.28
62124;BME280;48110;47.532;19.078;2022-08-30T17:03:33;100321.31;;;26.24;50.39
62124;BME280;48110;47.532;19.078;2022-08-30T17:06:37;100322.66;;;26.17;50.58
62124;BME280;48110;47.532;19.078;2022-08-30T17:09:41;100328.94;;;26.12;50.34
62124;BME280;48110;47.532;19.078;2022-08-30T17:12:44;100330.56;;;26.08;48.57
62124;BME280;48110;47.532;19.078;2022-08-30T17:15:48;100325.66;;;26.05;48.82